createdAt,value
2022-08-31T00:00:48.723Z,2.37
2022-08-31T00:03:11.906Z,2.60
2022-08-31T00:05:15.795Z,2.50
2022-08-31T00:07:18.444Z,2.67
2022-08-31T00:09:21.278Z,2.77
2022-08-31T00:11:30.212Z,2.33
2022-08-31T00:13:32.797Z,2.63
2022-08-31T00:15:36.255Z,2.13
2022-08-31T00:17:39.783Z,2.00
2022-08-31T00:19:42.724Z,2.43
2022-08-31T00:21:45.405Z,2.70
2022-08-31T00:23:49.192Z,2.73
2022-08-31T00:25:52.407Z,2.70
2022-08-31T00:27:55.883Z,2.10
2022-08-31T00:29:58.520Z,2.00
2022-08-31T00:32:01.698Z,2.20
2022-08-31T00:34:12.239Z,2.00
2022-08-31T00:36:15.031Z,1.90
2022-08-31T00:38:17.650Z,2.30
2022-08-31T00:40:20.445Z,2.10
2022-08-31T00:42:23.567Z,1.60
2022-08-31T00:44:54.255Z,1.93
2022-08-31T00:46:56.881Z,2.13
2022-08-31T00:49:10.037Z,2.13
2022-08-31T00:51:18.682Z,2.43
2022-08-31T00:53:21.729Z,2.00
2022-08-31T00:55:36.607Z,2.33
2022-08-31T00:57:44.443Z,2.08
2022-08-31T00:59:49.387Z,1.70
2022-08-31T01:01:52.405Z,1.70
2022-08-31T01:03:55.750Z,1.67
2022-08-31T01:05:58.654Z,1.53
2022-08-31T01:08:02.511Z,1.90
2022-08-31T01:10:06.329Z,1.83
2022-08-31T01:12:10.450Z,1.70
2022-08-31T01:14:13.183Z,2.10
2022-08-31T01:16:31.492Z,1.67
2022-08-31T01:18:35.041Z,2.00
2022-08-31T01:20:58.638Z,1.67
2022-08-31T01:23:13.547Z,1.90
2022-08-31T01:25:16.315Z,1.80
2022-08-31T01:27:24.945Z,1.50
2022-08-31T01:29:28.598Z,1.80
2022-08-31T01:31:45.929Z,1.80
2022-08-31T01:33:48.927Z,1.90
2022-08-31T01:35:56.598Z,1.80
2022-08-31T01:37:59.601Z,1.87
2022-08-31T01:40:03.935Z,2.23
2022-08-31T01:42:06.977Z,2.20
2022-08-31T01:44:16.472Z,2.03
2022-08-31T01:46:19.697Z,2.10
2022-08-31T01:48:27.495Z,2.30
2022-08-31T01:50:30.117Z,2.40
2022-08-31T01:52:34.280Z,1.92
2022-08-31T01:54:36.921Z,2.37
2022-08-31T01:56:45.436Z,2.43
2022-08-31T01:58:52.709Z,2.10
2022-08-31T02:01:33.813Z,2.00
2022-08-31T02:03:37.408Z,1.87
2022-08-31T02:05:41.115Z,1.93
2022-08-31T02:07:43.741Z,2.20
2022-08-31T02:09:46.304Z,2.03
2022-08-31T02:11:49.424Z,2.30
2022-08-31T02:13:53.237Z,2.10
2022-08-31T02:15:55.920Z,2.15
2022-08-31T02:17:58.765Z,2.20
2022-08-31T02:20:01.358Z,2.10
2022-08-31T02:22:04.128Z,2.43
2022-08-31T02:24:08.137Z,1.90
2022-08-31T02:26:11.945Z,1.93
2022-08-31T02:28:15.411Z,2.13
2022-08-31T02:30:19.685Z,2.50
2022-08-31T02:32:22.410Z,2.17
2022-08-31T02:34:25.731Z,2.43
2022-08-31T02:36:28.472Z,2.20
2022-08-31T02:38:33.689Z,2.40
2022-08-31T02:40:47.672Z,2.07
2022-08-31T02:42:54.220Z,1.70
2022-08-31T02:45:02.259Z,2.30
2022-08-31T02:47:04.995Z,1.90
2022-08-31T02:49:15.262Z,1.67
2022-08-31T02:51:19.499Z,2.10
2022-08-31T02:53:23.852Z,2.05
2022-08-31T02:55:29.012Z,2.17
2022-08-31T02:57:31.635Z,2.27
2022-08-31T02:59:34.318Z,2.47
2022-08-31T03:01:37.639Z,2.30
2022-08-31T03:03:40.422Z,1.87
2022-08-31T03:05:46.497Z,2.93
2022-08-31T03:07:50.289Z,2.20
2022-08-31T03:09:53.423Z,1.60
2022-08-31T03:11:56.042Z,2.40
2022-08-31T03:13:59.057Z,2.47
2022-08-31T03:16:02.099Z,2.93
2022-08-31T03:18:06.709Z,2.50
2022-08-31T03:20:11.924Z,2.17
2022-08-31T03:22:15.594Z,2.70
2022-08-31T03:24:21.254Z,2.37
2022-08-31T03:26:24.625Z,2.30
2022-08-31T03:28:27.295Z,2.63
2022-08-31T03:31:20.268Z,2.33
2022-08-31T03:33:23.137Z,2.20
2022-08-31T03:35:25.899Z,2.60
2022-08-31T03:37:29.170Z,2.20
2022-08-31T03:39:35.229Z,2.10
2022-08-31T03:41:38.154Z,2.80
2022-08-31T03:43:41.900Z,2.30
2022-08-31T03:45:45.865Z,2.50
2022-08-31T03:47:49.201Z,2.90
2022-08-31T03:49:52.479Z,2.50
2022-08-31T03:51:59.097Z,1.97
2022-08-31T03:54:05.220Z,2.70
2022-08-31T03:56:09.465Z,2.30
2022-08-31T03:58:16.845Z,2.10
2022-08-31T04:00:47.210Z,2.70
2022-08-31T04:03:09.834Z,2.17
2022-08-31T04:05:42.617Z,3.10
2022-08-31T04:07:47.776Z,3.37
2022-08-31T04:10:14.473Z,2.00
2022-08-31T04:12:35.926Z,2.23
2022-08-31T04:15:16.952Z,2.60
2022-08-31T04:17:25.094Z,2.70
2022-08-31T04:19:34.722Z,2.63
2022-08-31T04:21:50.745Z,2.80
2022-08-31T04:23:54.811Z,2.93
2022-08-31T04:25:58.410Z,3.07
2022-08-31T04:28:02.180Z,2.77
2022-08-31T04:30:08.298Z,2.73
2022-08-31T04:32:11.167Z,2.47
2022-08-31T04:34:14.161Z,2.73
2022-08-31T04:36:24.711Z,2.43
2022-08-31T04:40:00.271Z,2.60
2022-08-31T04:42:03.033Z,2.60
2022-08-31T04:44:09.018Z,2.97
2022-08-31T04:46:12.742Z,2.70
2022-08-31T04:48:15.465Z,2.40
2022-08-31T04:50:21.385Z,2.30
2022-08-31T04:52:43.969Z,3.60
2022-08-31T04:54:51.544Z,2.70
2022-08-31T04:56:54.354Z,2.50
2022-08-31T04:59:08.056Z,2.53
2022-08-31T05:01:21.251Z,2.40
2022-08-31T05:04:12.731Z,2.20
2022-08-31T05:06:18.071Z,2.23
2022-08-31T05:08:20.755Z,2.87
2022-08-31T05:10:24.815Z,3.17
2022-08-31T05:12:27.720Z,2.27
2022-08-31T05:14:30.411Z,3.03
2022-08-31T05:16:40.856Z,2.07
2022-08-31T05:18:48.114Z,2.70
2022-08-31T05:20:51.492Z,2.50
2022-08-31T05:22:54.211Z,2.73
2022-08-31T05:24:57.806Z,2.30
2022-08-31T05:27:00.364Z,2.40
2022-08-31T05:29:06.326Z,2.20
2022-08-31T05:31:09.743Z,2.63
2022-08-31T05:33:17.040Z,2.90
2022-08-31T05:35:20.460Z,2.80
2022-08-31T05:37:24.407Z,3.17
2022-08-31T05:39:27.459Z,2.53
2022-08-31T05:41:31.219Z,2.03
2022-08-31T05:43:35.062Z,3.30
2022-08-31T05:45:43.140Z,2.67
2022-08-31T05:47:46.323Z,2.40
2022-08-31T05:49:49.373Z,2.60
2022-08-31T05:51:57.208Z,2.20
2022-08-31T05:54:01.415Z,2.63
2022-08-31T05:56:13.462Z,2.47
2022-08-31T05:58:16.143Z,3.27
2022-08-31T06:00:20.067Z,2.10
2022-08-31T06:02:29.443Z,2.90
2022-08-31T06:04:33.360Z,3.83
2022-08-31T06:06:37.236Z,2.10
2022-08-31T06:08:41.345Z,2.60
2022-08-31T06:10:49.170Z,2.57
2022-08-31T06:12:52.156Z,1.70
2022-08-31T06:14:55.520Z,2.87
2022-08-31T06:17:00.108Z,2.00
2022-08-31T06:19:07.196Z,2.13
2022-08-31T06:21:12.865Z,2.40
2022-08-31T06:23:17.840Z,1.93
2022-08-31T06:25:24.825Z,1.93
2022-08-31T06:27:27.863Z,2.47
2022-08-31T06:29:33.095Z,2.70
2022-08-31T06:31:47.594Z,2.50
2022-08-31T06:33:55.187Z,2.50
2022-08-31T06:36:21.462Z,2.27
2022-08-31T06:38:48.178Z,1.80
2022-08-31T06:41:28.207Z,1.90
2022-08-31T06:43:52.953Z,1.80
2022-08-31T06:46:27.921Z,2.03
2022-08-31T06:48:39.782Z,2.37
2022-08-31T06:50:42.474Z,2.17
2022-08-31T06:52:48.564Z,2.10
2022-08-31T06:55:07.927Z,1.70
2022-08-31T06:57:25.617Z,2.13
2022-08-31T06:59:46.877Z,1.50
2022-08-31T07:02:18.933Z,2.10
2022-08-31T07:04:21.738Z,1.77
2022-08-31T07:06:30.797Z,1.57
2022-08-31T07:08:33.420Z,1.57
2022-08-31T07:10:36.433Z,1.93
2022-08-31T07:12:39.232Z,1.80
2022-08-31T07:14:41.970Z,1.33
2022-08-31T07:16:56.597Z,1.50
2022-08-31T07:19:03.480Z,1.60
2022-08-31T07:21:22.338Z,1.63
2022-08-31T07:23:25.151Z,1.63
2022-08-31T07:25:41.309Z,1.70
2022-08-31T07:27:44.373Z,1.47
2022-08-31T07:29:47.881Z,1.90
2022-08-31T07:31:53.061Z,1.83
2022-08-31T07:33:56.610Z,1.60
2022-08-31T07:36:00.866Z,1.93
2022-08-31T07:38:36.458Z,1.17
2022-08-31T07:40:58.741Z,1.53
2022-08-31T07:43:05.354Z,1.70
2022-08-31T07:45:20.023Z,1.20
2022-08-31T07:47:29.102Z,1.47
2022-08-31T07:49:32.329Z,1.57
2022-08-31T07:51:50.605Z,1.20
2022-08-31T07:54:04.947Z,1.40
2022-08-31T07:56:23.360Z,1.20
2022-08-31T07:58:31.720Z,1.17
2022-08-31T08:00:36.389Z,1.47
2022-08-31T08:02:39.907Z,1.50
2022-08-31T08:04:43.195Z,1.47
2022-08-31T08:07:18.586Z,1.27
2022-08-31T08:09:42.639Z,1.30
2022-08-31T08:12:06.313Z,1.40
2022-08-31T08:14:38.528Z,1.10
2022-08-31T08:16:50.289Z,1.20
2022-08-31T08:19:11.969Z,1.50
2022-08-31T08:21:14.652Z,1.40
2022-08-31T08:23:26.658Z,0.90
2022-08-31T08:25:44.388Z,1.40
2022-08-31T08:27:55.968Z,1.07
2022-08-31T08:30:13.726Z,1.10
2022-08-31T08:32:18.998Z,1.40
2022-08-31T08:34:32.914Z,1.00
2022-08-31T08:36:37.861Z,1.20
2022-08-31T08:38:43.954Z,1.00
2022-08-31T08:40:47.342Z,0.90
2022-08-31T08:42:50.107Z,0.90
2022-08-31T08:44:57.572Z,0.80
2022-08-31T08:47:06.354Z,1.10
2022-08-31T08:49:50.844Z,1.30
2022-08-31T08:52:03.145Z,1.40
2022-08-31T08:54:13.615Z,1.50
2022-08-31T08:57:14.117Z,1.37
2022-08-31T08:59:19.959Z,1.20
2022-08-31T09:01:28.036Z,1.30
2022-08-31T09:04:08.089Z,1.00
2022-08-31T09:07:12.350Z,1.40
2022-08-31T09:09:59.950Z,1.07
2022-08-31T09:12:36.178Z,1.20
2022-08-31T09:15:26.730Z,0.90
2022-08-31T09:18:22.839Z,1.17
2022-08-31T09:20:28.840Z,1.10
2022-08-31T09:22:55.721Z,1.00
2022-08-31T09:25:02.697Z,1.08
2022-08-31T09:27:58.149Z,1.40
2022-08-31T09:30:06.777Z,1.15
2022-08-31T09:32:16.671Z,1.20
2022-08-31T09:34:32.630Z,1.08
2022-08-31T09:37:34.307Z,1.00
2022-08-31T09:39:37.625Z,1.60
2022-08-31T09:41:40.224Z,1.00
2022-08-31T09:43:42.897Z,0.90
2022-08-31T09:46:28.337Z,0.90
2022-08-31T09:48:59.352Z,1.10
2022-08-31T09:51:04.509Z,1.00
2022-08-31T09:53:44.629Z,0.90
2022-08-31T09:55:47.920Z,1.00
2022-08-31T09:58:08.021Z,1.23
2022-08-31T10:00:15.452Z,0.90
2022-08-31T10:02:26.936Z,1.00
2022-08-31T10:04:36.876Z,1.10
2022-08-31T10:07:01.869Z,1.00
2022-08-31T10:09:40.603Z,1.10
2022-08-31T10:11:47.687Z,0.97
2022-08-31T10:14:03.609Z,2.00
2022-08-31T10:16:26.265Z,2.23
2022-08-31T10:18:56.161Z,1.13
2022-08-31T10:21:15.687Z,1.03
2022-08-31T10:23:28.136Z,0.93
2022-08-31T10:25:46.694Z,0.90
2022-08-31T10:28:07.737Z,1.00
2022-08-31T10:30:48.216Z,0.97
2022-08-31T10:33:15.096Z,1.10
2022-08-31T10:35:46.050Z,0.93
2022-08-31T10:38:20.244Z,0.70
2022-08-31T10:40:33.166Z,0.90
2022-08-31T10:42:43.437Z,1.03
2022-08-31T10:44:57.347Z,1.10
2022-08-31T10:47:05.746Z,0.70
2022-08-31T10:49:08.398Z,0.87
2022-08-31T10:51:27.003Z,1.37
2022-08-31T10:54:05.256Z,1.00
2022-08-31T10:56:32.440Z,0.93
2022-08-31T10:58:59.518Z,0.80
2022-08-31T11:01:35.322Z,1.00
2022-08-31T11:04:01.632Z,1.00
2022-08-31T11:06:37.362Z,1.27
2022-08-31T11:09:03.822Z,0.70
2022-08-31T11:11:11.225Z,0.87
2022-08-31T11:13:36.134Z,0.90
2022-08-31T11:16:07.075Z,1.60
2022-08-31T11:18:40.021Z,0.90
2022-08-31T11:21:20.756Z,1.02
2022-08-31T11:23:57.818Z,1.10
2022-08-31T11:26:44.611Z,0.80
2022-08-31T11:28:54.379Z,0.87
2022-08-31T11:30:57.201Z,0.80
2022-08-31T11:33:09.498Z,0.90
2022-08-31T11:35:15.592Z,1.10
2022-08-31T11:37:52.596Z,0.80
2022-08-31T11:39:56.744Z,0.90
2022-08-31T11:42:00.710Z,1.00
2022-08-31T11:44:05.090Z,0.70
2022-08-31T11:46:26.891Z,0.93
2022-08-31T11:48:51.460Z,1.00
2022-08-31T11:51:07.665Z,0.90
2022-08-31T11:53:36.496Z,1.20
2022-08-31T11:55:51.686Z,0.90
2022-08-31T11:58:11.923Z,0.90
2022-08-31T12:00:23.290Z,0.90
2022-08-31T12:02:26.191Z,0.93
2022-08-31T12:04:58.653Z,0.80
2022-08-31T12:07:07.004Z,0.87
2022-08-31T12:10:01.188Z,1.20
2022-08-31T12:12:51.332Z,1.00
2022-08-31T12:15:26.327Z,1.03
2022-08-31T12:18:10.781Z,0.80
2022-08-31T12:21:09.543Z,0.97
2022-08-31T12:23:37.554Z,1.00
2022-08-31T12:26:01.559Z,1.00
2022-08-31T12:28:48.994Z,0.80
2022-08-31T12:30:59.007Z,1.00
2022-08-31T12:33:13.385Z,0.90
2022-08-31T12:35:25.875Z,0.73
2022-08-31T12:37:36.625Z,0.90
2022-08-31T12:39:39.247Z,1.00
2022-08-31T12:41:58.085Z,0.83
2022-08-31T12:44:03.966Z,1.00
2022-08-31T12:46:29.004Z,0.83
2022-08-31T12:48:53.455Z,1.30
2022-08-31T12:51:38.346Z,1.03
2022-08-31T12:54:18.420Z,0.87
2022-08-31T12:56:57.550Z,1.10
2022-08-31T12:59:45.665Z,0.90
2022-08-31T13:01:51.161Z,0.87
2022-08-31T13:04:00.496Z,1.10
2022-08-31T13:06:13.773Z,1.30
2022-08-31T13:08:22.045Z,0.93
2022-08-31T13:10:34.716Z,0.80
2022-08-31T13:12:37.927Z,0.87
2022-08-31T13:14:53.806Z,0.80
2022-08-31T13:17:07.175Z,1.00
2022-08-31T13:19:22.865Z,0.80
2022-08-31T13:21:26.217Z,0.80
2022-08-31T13:23:40.909Z,0.80
2022-08-31T13:25:48.380Z,0.90
2022-08-31T13:27:53.693Z,1.07
2022-08-31T13:30:12.078Z,1.10
2022-08-31T13:32:32.477Z,1.07
2022-08-31T13:34:39.370Z,0.80
2022-08-31T13:36:58.437Z,1.00
2022-08-31T13:39:29.932Z,0.83
2022-08-31T13:41:56.633Z,1.00
2022-08-31T13:44:07.762Z,0.73
2022-08-31T13:46:10.491Z,0.70
2022-08-31T13:48:31.722Z,0.90
2022-08-31T13:50:56.157Z,1.30
2022-08-31T13:55:43.350Z,1.40
2022-08-31T13:58:02.990Z,0.70
2022-08-31T14:00:47.083Z,0.70
2022-08-31T14:02:55.155Z,0.63
2022-08-31T14:05:03.279Z,1.17
2022-08-31T14:07:05.952Z,0.97
2022-08-31T14:09:15.881Z,0.60
2022-08-31T14:11:20.534Z,0.90
2022-08-31T14:13:27.085Z,1.00
2022-08-31T14:15:39.072Z,0.80
2022-08-31T14:20:36.996Z,0.87
2022-08-31T14:23:33.655Z,0.90
2022-08-31T14:25:36.268Z,0.90
2022-08-31T14:27:41.615Z,1.10
2022-08-31T14:29:44.244Z,1.10
2022-08-31T14:31:53.752Z,1.33
2022-08-31T14:34:47.203Z,1.27
2022-08-31T14:37:20.297Z,1.07
2022-08-31T14:39:42.869Z,0.90
2022-08-31T14:41:45.645Z,1.07
2022-08-31T14:43:48.564Z,1.00
2022-08-31T14:45:54.598Z,1.10
2022-08-31T14:47:59.037Z,0.60
2022-08-31T14:50:08.270Z,0.70
2022-08-31T14:52:13.120Z,0.70
2022-08-31T14:54:19.041Z,0.87
2022-08-31T14:56:48.933Z,0.60
2022-08-31T14:58:51.702Z,0.80
2022-08-31T15:00:54.945Z,0.80
2022-08-31T15:02:57.654Z,0.93
2022-08-31T15:05:04.722Z,1.20
2022-08-31T15:07:10.059Z,0.90
2022-08-31T15:09:13.616Z,0.87
2022-08-31T15:11:16.390Z,0.70
2022-08-31T15:13:18.948Z,0.90
2022-08-31T15:15:21.654Z,1.10
2022-08-31T15:17:25.149Z,1.00
2022-08-31T15:19:29.158Z,0.97
2022-08-31T15:21:31.826Z,1.00
2022-08-31T15:23:34.543Z,0.97
2022-08-31T15:25:39.314Z,0.90
2022-08-31T15:27:44.187Z,0.60
2022-08-31T15:29:56.134Z,1.00
2022-08-31T15:32:23.834Z,0.80
2022-08-31T15:34:33.093Z,0.90
2022-08-31T15:36:37.369Z,0.63
2022-08-31T15:38:40.501Z,0.73
2022-08-31T15:40:45.425Z,0.80
2022-08-31T15:42:50.395Z,0.90
2022-08-31T15:44:57.004Z,0.77
2022-08-31T15:47:18.322Z,0.93
2022-08-31T15:49:21.008Z,0.98
2022-08-31T15:51:27.960Z,0.80
2022-08-31T15:53:31.442Z,0.93
2022-08-31T15:55:35.278Z,1.10
2022-08-31T15:57:39.253Z,1.10
2022-08-31T15:59:43.645Z,0.90
2022-08-31T16:01:46.398Z,0.80
2022-08-31T16:03:55.714Z,0.90
2022-08-31T16:06:01.082Z,1.00
2022-08-31T16:08:03.786Z,0.70
2022-08-31T16:10:19.830Z,0.90
2022-08-31T16:12:23.418Z,0.70
2022-08-31T16:14:26.183Z,0.60
2022-08-31T16:16:36.930Z,0.60
2022-08-31T16:18:39.960Z,0.67
2022-08-31T16:20:46.008Z,0.90
2022-08-31T16:22:51.880Z,0.70
2022-08-31T16:24:54.968Z,0.90
2022-08-31T16:26:58.911Z,0.90
2022-08-31T16:29:03.705Z,0.87
2022-08-31T16:31:12.499Z,0.70
2022-08-31T16:33:15.385Z,1.70
2022-08-31T16:35:19.466Z,0.73
2022-08-31T16:37:22.835Z,0.90
2022-08-31T16:39:28.162Z,0.90
2022-08-31T16:41:32.853Z,0.90
2022-08-31T16:43:41.132Z,0.70
2022-08-31T16:45:43.895Z,0.60
2022-08-31T16:47:46.729Z,0.70
2022-08-31T16:49:50.149Z,0.50
2022-08-31T16:51:53.109Z,0.90
2022-08-31T16:53:59.339Z,0.70
2022-08-31T16:56:03.834Z,0.70
2022-08-31T16:58:50.060Z,0.70
2022-08-31T17:00:47.701Z,0.60
2022-08-31T17:02:50.409Z,0.73
2022-08-31T17:04:54.307Z,0.83
2022-08-31T17:06:57.303Z,0.67
2022-08-31T17:09:06.859Z,0.70
2022-08-31T17:11:21.273Z,0.70
2022-08-31T17:13:24.067Z,0.80
2022-08-31T17:15:26.883Z,0.70
2022-08-31T17:17:37.410Z,0.60
2022-08-31T17:19:43.188Z,0.82
2022-08-31T17:21:53.032Z,0.60
2022-08-31T17:24:05.071Z,0.67
2022-08-31T17:26:20.013Z,0.77
2022-08-31T17:28:26.126Z,0.70
2022-08-31T17:30:32.344Z,0.70
2022-08-31T17:32:44.519Z,0.70
2022-08-31T17:34:51.910Z,0.90
2022-08-31T17:37:27.881Z,1.17
2022-08-31T17:39:31.274Z,0.75
2022-08-31T17:41:36.281Z,0.80
2022-08-31T17:43:39.438Z,0.70
2022-08-31T17:45:42.198Z,0.80
2022-08-31T17:47:44.884Z,0.60
2022-08-31T17:49:49.983Z,0.70
2022-08-31T17:51:55.274Z,0.60
2022-08-31T17:54:02.608Z,0.57
2022-08-31T17:56:08.349Z,0.77
2022-08-31T17:58:11.103Z,0.50
2022-08-31T18:00:15.063Z,0.60
2022-08-31T18:02:22.752Z,0.77
2022-08-31T18:04:27.476Z,0.80
2022-08-31T18:06:31.321Z,0.70
2022-08-31T18:09:01.195Z,0.70
2022-08-31T18:11:04.042Z,0.70
2022-08-31T18:13:08.096Z,0.50
2022-08-31T18:15:12.679Z,0.80
2022-08-31T18:17:18.100Z,0.60
2022-08-31T18:19:27.227Z,0.60
2022-08-31T18:21:32.600Z,0.70
2022-08-31T18:23:35.620Z,0.80
2022-08-31T18:25:40.867Z,0.70
2022-08-31T18:27:43.553Z,0.73
2022-08-31T18:29:46.209Z,0.67
2022-08-31T18:31:51.261Z,0.83
2022-08-31T18:33:55.783Z,1.13
2022-08-31T18:36:01.446Z,0.87
2022-08-31T18:38:04.807Z,0.80
2022-08-31T18:40:36.111Z,0.97
2022-08-31T18:42:57.434Z,0.90
2022-08-31T18:45:15.498Z,0.77
2022-08-31T18:47:18.733Z,1.00
2022-08-31T18:49:22.343Z,1.20
2022-08-31T18:51:25.286Z,1.30
2022-08-31T18:53:30.220Z,1.23
2022-08-31T18:55:33.740Z,1.10
2022-08-31T18:57:48.735Z,1.10
2022-08-31T18:59:53.882Z,1.30
2022-08-31T19:01:57.212Z,1.10
2022-08-31T19:04:02.970Z,1.20
2022-08-31T19:06:07.428Z,1.30
2022-08-31T19:08:11.406Z,1.00
2022-08-31T19:10:14.345Z,1.30
2022-08-31T19:12:20.036Z,1.40
2022-08-31T19:14:26.391Z,0.93
2022-08-31T19:17:49.577Z,1.27
2022-08-31T19:19:54.562Z,1.40
2022-08-31T19:21:58.142Z,0.90
2022-08-31T19:24:06.066Z,0.93
2022-08-31T19:26:11.586Z,1.15
2022-08-31T19:28:15.913Z,1.37
2022-08-31T19:30:24.397Z,0.90
2022-08-31T19:32:30.139Z,1.10
2022-08-31T19:34:59.944Z,0.80
2022-08-31T19:37:03.394Z,0.97
2022-08-31T19:39:11.162Z,1.40
2022-08-31T19:41:24.587Z,1.20
2022-08-31T19:43:53.557Z,1.37
2022-08-31T19:45:54.135Z,1.57
2022-08-31T19:48:01.268Z,0.83
2022-08-31T19:50:13.678Z,1.23
2022-08-31T19:52:16.666Z,1.30
2022-08-31T19:54:21.196Z,1.35
2022-08-31T19:56:30.496Z,0.90
2022-08-31T19:58:43.584Z,1.60
2022-08-31T20:00:47.992Z,1.20
2022-08-31T20:02:51.417Z,1.03
2022-08-31T20:04:54.297Z,1.55
2022-08-31T20:06:57.797Z,1.50
2022-08-31T20:09:00.811Z,1.20
2022-08-31T20:11:11.261Z,1.50
2022-08-31T20:13:14.387Z,1.30
2022-08-31T20:15:17.115Z,1.47
2022-08-31T20:17:20.451Z,1.37
2022-08-31T20:19:26.260Z,1.33
2022-08-31T20:21:34.548Z,1.10
2022-08-31T20:23:37.239Z,1.37
2022-08-31T20:25:40.139Z,1.30
2022-08-31T20:27:42.813Z,1.37
2022-08-31T20:29:45.671Z,1.03
2022-08-31T20:31:51.244Z,1.27
2022-08-31T20:33:58.404Z,1.50
2022-08-31T20:36:32.641Z,1.30
2022-08-31T20:38:36.043Z,1.37
2022-08-31T20:40:39.685Z,1.20
2022-08-31T20:42:42.530Z,1.00
2022-08-31T20:44:48.978Z,1.00
2022-08-31T20:47:14.535Z,1.57
2022-08-31T20:49:23.112Z,1.20
2022-08-31T20:51:25.697Z,1.10
2022-08-31T20:53:42.345Z,1.37
2022-08-31T20:55:47.515Z,1.40
2022-08-31T20:57:51.108Z,1.00
2022-08-31T20:59:53.777Z,1.43
2022-08-31T21:01:59.636Z,1.00
2022-08-31T21:04:02.672Z,1.30
2022-08-31T21:06:08.330Z,1.17
2022-08-31T21:08:12.474Z,1.30
2022-08-31T21:10:15.100Z,1.27
2022-08-31T21:12:18.746Z,1.40
2022-08-31T21:14:27.589Z,1.20
2022-08-31T21:16:32.305Z,1.47
2022-08-31T21:18:37.145Z,1.20
2022-08-31T21:20:39.777Z,1.00
2022-08-31T21:22:42.711Z,1.30
2022-08-31T21:24:47.444Z,1.20
2022-08-31T21:26:59.284Z,1.07
2022-08-31T21:29:02.274Z,1.40
2022-08-31T21:31:15.665Z,1.10
2022-08-31T21:33:30.377Z,1.10
2022-08-31T21:35:32.941Z,1.40
2022-08-31T21:37:35.570Z,1.30
2022-08-31T21:39:38.510Z,1.07
2022-08-31T21:41:43.042Z,1.63
2022-08-31T21:43:46.422Z,1.87
2022-08-31T21:46:00.296Z,1.40
2022-08-31T21:48:03.292Z,1.10
2022-08-31T21:50:06.912Z,1.40
2022-08-31T21:52:09.593Z,1.60
2022-08-31T21:54:15.342Z,1.50
2022-08-31T21:56:20.549Z,1.17
2022-08-31T21:58:23.671Z,1.70
2022-08-31T22:00:29.570Z,0.97
2022-08-31T22:02:32.221Z,1.33
2022-08-31T22:04:39.380Z,1.40
2022-08-31T22:06:45.597Z,1.23
2022-08-31T22:09:06.291Z,1.27
2022-08-31T22:11:18.517Z,1.10
2022-08-31T22:13:21.286Z,1.10
2022-08-31T22:15:25.325Z,1.30
2022-08-31T22:17:42.538Z,1.20
2022-08-31T22:19:50.925Z,1.10
2022-08-31T22:21:58.368Z,1.23
2022-08-31T22:24:06.525Z,1.20
2022-08-31T22:26:10.193Z,1.10
2022-08-31T22:28:13.077Z,1.20
2022-08-31T22:30:15.906Z,1.17
2022-08-31T22:32:18.478Z,1.20
2022-08-31T22:34:21.843Z,1.40
2022-08-31T22:36:32.396Z,1.60
2022-08-31T22:38:35.745Z,1.20
2022-08-31T22:40:39.413Z,1.27
2022-08-31T22:42:42.631Z,1.10
2022-08-31T22:44:51.985Z,1.30
2022-08-31T22:46:57.072Z,1.10
2022-08-31T22:48:59.850Z,1.50
2022-08-31T22:51:09.709Z,1.30
2022-08-31T22:53:12.358Z,1.40
2022-08-31T22:55:14.943Z,1.30
2022-08-31T22:57:17.563Z,1.30
2022-08-31T22:59:27.434Z,1.13
2022-08-31T23:01:52.313Z,1.10
2022-08-31T23:04:00.722Z,1.17
2022-08-31T23:06:03.435Z,1.20
2022-08-31T23:08:08.506Z,1.40
2022-08-31T23:10:15.402Z,1.40
2022-08-31T23:12:18.020Z,1.30
2022-08-31T23:14:21.713Z,1.10
2022-08-31T23:16:46.898Z,1.50
2022-08-31T23:18:49.591Z,1.50
2022-08-31T23:20:52.820Z,1.30
2022-08-31T23:22:55.710Z,1.50
2022-08-31T23:24:59.832Z,1.57
2022-08-31T23:27:05.017Z,1.50
2022-08-31T23:29:09.437Z,1.70
2022-08-31T23:31:12.051Z,1.43
2022-08-31T23:33:14.821Z,1.67
2022-08-31T23:35:18.827Z,1.63
2022-08-31T23:37:25.799Z,1.40
2022-08-31T23:39:29.966Z,1.20
2022-08-31T23:41:37.782Z,1.13
2022-08-31T23:43:41.789Z,1.73
2022-08-31T23:45:44.563Z,1.60
2022-08-31T23:47:47.261Z,1.47
2022-08-31T23:49:53.653Z,1.37
2022-08-31T23:51:56.199Z,1.50
2022-08-31T23:54:00.327Z,1.50
2022-08-31T23:56:09.062Z,1.50
2022-08-31T23:58:14.059Z,1.83
